Terminal Aerodrome Forecast
Issued by NWS Charleston, WV

Current Version | Previous Version | Text Only | Print | Product List | Glossary Off
Versions: 1 2 3 4 5 6 7 8 9 10 11 12 13 14 15 16 17 18 19 20 21 22 23 24 25 26 27

678
FTUS41 KRLX 171502 AAA
TAFEKN
TAF AMD
KEKN 171502Z 1715/1812 19006KT 3SM -SHRA BKN025 OVC040
     FM171700 21010G16KT 6SM -SHRA BKN015
     FM171900 23011G17KT P6SM -SHRA OVC015=

USA.gov is the U.S. government's official web portal to all federal, state and local government web resources and services.